sensor_id;sensor_type;location;lat;lon;timestamp;temperature;humidity
70145;DHT22;57510;51.068;3.872;2022-07-10T00:00:05;15.20;86.40
70145;DHT22;57510;51.068;3.872;2022-07-10T00:02:32;15.20;85.90
70145;DHT22;57510;51.068;3.872;2022-07-10T00:04:57;15.20;85.90
70145;DHT22;57510;51.068;3.872;2022-07-10T00:07:23;15.10;86.30
70145;DHT22;57510;51.068;3.872;2022-07-10T00:09:49;15.10;85.50
70145;DHT22;57510;51.068;3.872;2022-07-10T00:12:16;15.00;85.20
70145;DHT22;57510;51.068;3.872;2022-07-10T00:14:44;15.00;84.90
70145;DHT22;57510;51.068;3.872;2022-07-10T00:17:09;15.00;84.70
70145;DHT22;57510;51.068;3.872;2022-07-10T00:19:35;14.90;84.70
70145;DHT22;57510;51.068;3.872;2022-07-10T00:22:01;14.90;85.10
70145;DHT22;57510;51.068;3.872;2022-07-10T00:24:27;14.80;85.10
70145;DHT22;57510;51.068;3.872;2022-07-10T00:26:52;14.70;85.60
70145;DHT22;57510;51.068;3.872;2022-07-10T00:29:18;14.70;85.80
70145;DHT22;57510;51.068;3.872;2022-07-10T00:31:44;14.70;85.50
70145;DHT22;57510;51.068;3.872;2022-07-10T00:34:10;14.70;85.60
70145;DHT22;57510;51.068;3.872;2022-07-10T00:36:39;14.70;85.70
70145;DHT22;57510;51.068;3.872;2022-07-10T00:39:04;14.70;85.40
70145;DHT22;57510;51.068;3.872;2022-07-10T00:41:31;14.70;86.00
70145;DHT22;57510;51.068;3.872;2022-07-10T00:44:01;14.60;85.80
70145;DHT22;57510;51.068;3.872;2022-07-10T00:46:28;14.60;86.00
70145;DHT22;57510;51.068;3.872;2022-07-10T00:48:54;14.60;85.90
70145;DHT22;57510;51.068;3.872;2022-07-10T00:51:23;14.60;85.90
70145;DHT22;57510;51.068;3.872;2022-07-10T00:53:49;14.70;85.80
70145;DHT22;57510;51.068;3.872;2022-07-10T00:56:17;14.60;85.70
70145;DHT22;57510;51.068;3.872;2022-07-10T00:58:47;14.60;85.50
70145;DHT22;57510;51.068;3.872;2022-07-10T01:01:13;14.60;85.60
70145;DHT22;57510;51.068;3.872;2022-07-10T01:03:39;14.60;85.60
70145;DHT22;57510;51.068;3.872;2022-07-10T01:06:05;14.60;85.50
70145;DHT22;57510;51.068;3.872;2022-07-10T01:08:35;14.60;85.60
70145;DHT22;57510;51.068;3.872;2022-07-10T01:11:01;14.50;85.30
70145;DHT22;57510;51.068;3.872;2022-07-10T01:13:27;14.50;85.50
70145;DHT22;57510;51.068;3.872;2022-07-10T01:15:54;14.40;85.30
70145;DHT22;57510;51.068;3.872;2022-07-10T01:18:22;14.40;85.40
70145;DHT22;57510;51.068;3.872;2022-07-10T01:20:57;14.30;85.80
70145;DHT22;57510;51.068;3.872;2022-07-10T01:23:23;14.30;86.00
70145;DHT22;57510;51.068;3.872;2022-07-10T01:25:50;14.30;85.70
70145;DHT22;57510;51.068;3.872;2022-07-10T01:28:20;14.20;85.70
70145;DHT22;57510;51.068;3.872;2022-07-10T01:30:47;14.20;85.60
70145;DHT22;57510;51.068;3.872;2022-07-10T01:33:13;14.30;85.70
70145;DHT22;57510;51.068;3.872;2022-07-10T01:35:39;14.30;86.20
70145;DHT22;57510;51.068;3.872;2022-07-10T01:38:05;14.30;86.20
70145;DHT22;57510;51.068;3.872;2022-07-10T01:40:32;14.30;86.30
70145;DHT22;57510;51.068;3.872;2022-07-10T01:42:58;14.20;86.60
70145;DHT22;57510;51.068;3.872;2022-07-10T01:45:24;14.20;86.40
70145;DHT22;57510;51.068;3.872;2022-07-10T01:47:50;14.20;86.30
70145;DHT22;57510;51.068;3.872;2022-07-10T01:50:16;14.20;85.90
70145;DHT22;57510;51.068;3.872;2022-07-10T01:52:42;14.10;85.70
70145;DHT22;57510;51.068;3.872;2022-07-10T01:55:08;14.00;85.50
70145;DHT22;57510;51.068;3.872;2022-07-10T01:57:35;14.00;86.00
70145;DHT22;57510;51.068;3.872;2022-07-10T02:00:00;14.00;86.20
70145;DHT22;57510;51.068;3.872;2022-07-10T02:02:26;14.00;86.00
70145;DHT22;57510;51.068;3.872;2022-07-10T02:04:52;14.00;85.90
70145;DHT22;57510;51.068;3.872;2022-07-10T02:07:19;14.00;86.20
70145;DHT22;57510;51.068;3.872;2022-07-10T02:09:47;14.00;86.10
70145;DHT22;57510;51.068;3.872;2022-07-10T02:12:13;13.90;85.80
70145;DHT22;57510;51.068;3.872;2022-07-10T02:14:40;13.90;85.80
70145;DHT22;57510;51.068;3.872;2022-07-10T02:17:07;13.90;85.70
70145;DHT22;57510;51.068;3.872;2022-07-10T02:19:33;13.90;85.60
70145;DHT22;57510;51.068;3.872;2022-07-10T02:21:59;13.90;85.50
70145;DHT22;57510;51.068;3.872;2022-07-10T02:24:25;13.80;85.30
70145;DHT22;57510;51.068;3.872;2022-07-10T02:26:54;13.80;85.50
70145;DHT22;57510;51.068;3.872;2022-07-10T02:29:21;13.80;85.50
70145;DHT22;57510;51.068;3.872;2022-07-10T02:31:50;13.70;85.50
70145;DHT22;57510;51.068;3.872;2022-07-10T02:34:17;13.70;85.50
70145;DHT22;57510;51.068;3.872;2022-07-10T02:36:42;13.70;85.40
70145;DHT22;57510;51.068;3.872;2022-07-10T02:39:08;13.70;85.20
70145;DHT22;57510;51.068;3.872;2022-07-10T02:41:35;13.70;85.30
70145;DHT22;57510;51.068;3.872;2022-07-10T02:44:02;13.60;85.40
70145;DHT22;57510;51.068;3.872;2022-07-10T02:46:28;13.70;85.70
70145;DHT22;57510;51.068;3.872;2022-07-10T02:48:54;13.70;85.70
70145;DHT22;57510;51.068;3.872;2022-07-10T02:51:20;13.70;85.80
70145;DHT22;57510;51.068;3.872;2022-07-10T02:53:45;13.70;85.70
70145;DHT22;57510;51.068;3.872;2022-07-10T02:56:11;13.60;85.40
70145;DHT22;57510;51.068;3.872;2022-07-10T02:58:43;13.60;86.00
70145;DHT22;57510;51.068;3.872;2022-07-10T03:01:09;13.60;86.70
70145;DHT22;57510;51.068;3.872;2022-07-10T03:03:38;13.60;86.70
70145;DHT22;57510;51.068;3.872;2022-07-10T03:06:03;13.50;87.00
70145;DHT22;57510;51.068;3.872;2022-07-10T03:08:29;13.60;86.50
70145;DHT22;57510;51.068;3.872;2022-07-10T03:10:56;13.50;86.30
70145;DHT22;57510;51.068;3.872;2022-07-10T03:13:22;13.50;86.20
70145;DHT22;57510;51.068;3.872;2022-07-10T03:15:53;13.40;86.40
70145;DHT22;57510;51.068;3.872;2022-07-10T03:18:18;13.30;86.70
70145;DHT22;57510;51.068;3.872;2022-07-10T03:20:44;13.30;86.60
70145;DHT22;57510;51.068;3.872;2022-07-10T03:23:10;13.30;86.40
70145;DHT22;57510;51.068;3.872;2022-07-10T03:25:37;13.40;86.30
70145;DHT22;57510;51.068;3.872;2022-07-10T03:28:02;13.40;86.20
70145;DHT22;57510;51.068;3.872;2022-07-10T03:30:32;13.30;85.90
70145;DHT22;57510;51.068;3.872;2022-07-10T03:32:58;13.30;86.10
70145;DHT22;57510;51.068;3.872;2022-07-10T03:35:24;13.30;86.00
70145;DHT22;57510;51.068;3.872;2022-07-10T03:37:51;13.40;86.20
70145;DHT22;57510;51.068;3.872;2022-07-10T03:40:16;13.30;86.10
70145;DHT22;57510;51.068;3.872;2022-07-10T03:42:42;13.30;86.50
70145;DHT22;57510;51.068;3.872;2022-07-10T03:45:08;13.30;86.70
70145;DHT22;57510;51.068;3.872;2022-07-10T03:47:35;13.30;87.00
70145;DHT22;57510;51.068;3.872;2022-07-10T03:50:03;13.20;86.90
70145;DHT22;57510;51.068;3.872;2022-07-10T03:52:29;13.20;86.70
70145;DHT22;57510;51.068;3.872;2022-07-10T03:55:01;13.20;87.00
70145;DHT22;57510;51.068;3.872;2022-07-10T03:57:27;13.20;86.80
70145;DHT22;57510;51.068;3.872;2022-07-10T04:00:12;13.20;87.40
70145;DHT22;57510;51.068;3.872;2022-07-10T04:02:38;13.10;87.60
70145;DHT22;57510;51.068;3.872;2022-07-10T04:05:06;13.00;88.20
70145;DHT22;57510;51.068;3.872;2022-07-10T04:07:33;13.00;88.40
70145;DHT22;57510;51.068;3.872;2022-07-10T04:09:59;13.10;88.90
70145;DHT22;57510;51.068;3.872;2022-07-10T04:12:25;13.10;89.20
70145;DHT22;57510;51.068;3.872;2022-07-10T04:14:53;13.20;89.40
70145;DHT22;57510;51.068;3.872;2022-07-10T04:17:21;13.20;89.10
70145;DHT22;57510;51.068;3.872;2022-07-10T04:19:47;13.30;89.30
70145;DHT22;57510;51.068;3.872;2022-07-10T04:22:13;13.40;89.10
70145;DHT22;57510;51.068;3.872;2022-07-10T04:24:40;13.40;88.70
70145;DHT22;57510;51.068;3.872;2022-07-10T04:27:05;13.40;88.90
70145;DHT22;57510;51.068;3.872;2022-07-10T04:29:32;13.40;89.50
70145;DHT22;57510;51.068;3.872;2022-07-10T04:31:58;13.50;89.70
70145;DHT22;57510;51.068;3.872;2022-07-10T04:34:24;13.60;89.70
70145;DHT22;57510;51.068;3.872;2022-07-10T04:36:51;13.70;89.60
70145;DHT22;57510;51.068;3.872;2022-07-10T04:39:17;13.80;89.50
70145;DHT22;57510;51.068;3.872;2022-07-10T04:41:43;13.90;89.80
70145;DHT22;57510;51.068;3.872;2022-07-10T04:44:09;13.90;89.20
70145;DHT22;57510;51.068;3.872;2022-07-10T04:46:35;13.90;89.20
70145;DHT22;57510;51.068;3.872;2022-07-10T04:49:01;14.00;89.70
70145;DHT22;57510;51.068;3.872;2022-07-10T04:51:29;14.00;90.10
70145;DHT22;57510;51.068;3.872;2022-07-10T04:53:57;14.10;90.20
70145;DHT22;57510;51.068;3.872;2022-07-10T04:56:26;14.20;90.20
70145;DHT22;57510;51.068;3.872;2022-07-10T04:58:52;14.20;90.30
70145;DHT22;57510;51.068;3.872;2022-07-10T05:01:19;14.30;90.40
70145;DHT22;57510;51.068;3.872;2022-07-10T05:03:45;14.30;90.30
70145;DHT22;57510;51.068;3.872;2022-07-10T05:06:12;14.50;90.20
70145;DHT22;57510;51.068;3.872;2022-07-10T05:08:38;14.50;90.10
70145;DHT22;57510;51.068;3.872;2022-07-10T05:11:11;14.60;90.10
70145;DHT22;57510;51.068;3.872;2022-07-10T05:13:42;14.70;90.10
70145;DHT22;57510;51.068;3.872;2022-07-10T05:16:18;14.70;90.30
70145;DHT22;57510;51.068;3.872;2022-07-10T05:18:49;14.70;90.60
70145;DHT22;57510;51.068;3.872;2022-07-10T05:21:15;14.80;91.10
70145;DHT22;57510;51.068;3.872;2022-07-10T05:23:42;14.80;91.20
70145;DHT22;57510;51.068;3.872;2022-07-10T05:26:08;14.80;91.70
70145;DHT22;57510;51.068;3.872;2022-07-10T05:28:34;14.90;91.90
70145;DHT22;57510;51.068;3.872;2022-07-10T05:31:13;14.90;91.60
70145;DHT22;57510;51.068;3.872;2022-07-10T05:33:40;15.00;91.50
70145;DHT22;57510;51.068;3.872;2022-07-10T05:36:08;15.10;91.30
70145;DHT22;57510;51.068;3.872;2022-07-10T05:38:34;15.20;91.40
70145;DHT22;57510;51.068;3.872;2022-07-10T05:41:00;15.30;91.20
70145;DHT22;57510;51.068;3.872;2022-07-10T05:43:26;15.30;91.10
70145;DHT22;57510;51.068;3.872;2022-07-10T05:45:52;15.30;91.40
70145;DHT22;57510;51.068;3.872;2022-07-10T05:48:23;15.40;91.30
70145;DHT22;57510;51.068;3.872;2022-07-10T05:50:52;15.40;91.00
70145;DHT22;57510;51.068;3.872;2022-07-10T05:53:25;15.50;90.60
70145;DHT22;57510;51.068;3.872;2022-07-10T05:55:51;15.50;90.80
70145;DHT22;57510;51.068;3.872;2022-07-10T05:58:17;15.70;90.80
70145;DHT22;57510;51.068;3.872;2022-07-10T06:00:43;15.80;90.80
70145;DHT22;57510;51.068;3.872;2022-07-10T06:03:11;15.80;90.60
70145;DHT22;57510;51.068;3.872;2022-07-10T06:05:44;15.90;90.70
70145;DHT22;57510;51.068;3.872;2022-07-10T06:08:19;16.00;90.70
70145;DHT22;57510;51.068;3.872;2022-07-10T06:10:44;16.10;90.50
70145;DHT22;57510;51.068;3.872;2022-07-10T06:13:10;16.20;90.00
70145;DHT22;57510;51.068;3.872;2022-07-10T06:15:40;16.20;89.30
70145;DHT22;57510;51.068;3.872;2022-07-10T06:18:06;16.30;89.10
70145;DHT22;57510;51.068;3.872;2022-07-10T06:20:35;16.40;88.70
70145;DHT22;57510;51.068;3.872;2022-07-10T06:23:03;16.40;89.10
70145;DHT22;57510;51.068;3.872;2022-07-10T06:25:29;16.40;89.10
70145;DHT22;57510;51.068;3.872;2022-07-10T06:27:55;16.50;88.70
70145;DHT22;57510;51.068;3.872;2022-07-10T06:30:22;16.50;88.80
70145;DHT22;57510;51.068;3.872;2022-07-10T06:32:48;16.60;88.40
70145;DHT22;57510;51.068;3.872;2022-07-10T06:35:14;16.70;89.30
70145;DHT22;57510;51.068;3.872;2022-07-10T06:37:40;16.70;87.60
70145;DHT22;57510;51.068;3.872;2022-07-10T06:40:06;16.70;87.50
70145;DHT22;57510;51.068;3.872;2022-07-10T06:42:41;16.80;87.90
70145;DHT22;57510;51.068;3.872;2022-07-10T06:45:13;16.90;87.80
70145;DHT22;57510;51.068;3.872;2022-07-10T06:47:40;17.00;86.10
70145;DHT22;57510;51.068;3.872;2022-07-10T06:50:24;17.20;85.80
70145;DHT22;57510;51.068;3.872;2022-07-10T06:52:55;17.30;84.90
70145;DHT22;57510;51.068;3.872;2022-07-10T06:55:22;17.50;85.20
70145;DHT22;57510;51.068;3.872;2022-07-10T06:57:51;17.50;85.40
70145;DHT22;57510;51.068;3.872;2022-07-10T07:00:17;17.60;85.00
70145;DHT22;57510;51.068;3.872;2022-07-10T07:02:44;17.60;84.60
70145;DHT22;57510;51.068;3.872;2022-07-10T07:05:11;17.60;85.10
70145;DHT22;57510;51.068;3.872;2022-07-10T07:07:37;17.60;84.40
70145;DHT22;57510;51.068;3.872;2022-07-10T07:10:14;17.60;84.40
70145;DHT22;57510;51.068;3.872;2022-07-10T07:12:40;17.80;85.10
70145;DHT22;57510;51.068;3.872;2022-07-10T07:15:06;18.00;85.70
70145;DHT22;57510;51.068;3.872;2022-07-10T07:17:32;18.00;82.10
70145;DHT22;57510;51.068;3.872;2022-07-10T07:20:12;18.00;82.20
70145;DHT22;57510;51.068;3.872;2022-07-10T07:22:57;18.00;81.50
70145;DHT22;57510;51.068;3.872;2022-07-10T07:25:35;18.00;82.40
70145;DHT22;57510;51.068;3.872;2022-07-10T07:28:02;18.00;81.80
70145;DHT22;57510;51.068;3.872;2022-07-10T07:30:27;18.10;82.40
70145;DHT22;57510;51.068;3.872;2022-07-10T07:32:53;18.20;82.30
70145;DHT22;57510;51.068;3.872;2022-07-10T07:35:19;18.10;81.70
70145;DHT22;57510;51.068;3.872;2022-07-10T07:37:46;18.00;81.60
70145;DHT22;57510;51.068;3.872;2022-07-10T07:40:13;18.00;82.40
70145;DHT22;57510;51.068;3.872;2022-07-10T07:42:42;17.90;82.10
70145;DHT22;57510;51.068;3.872;2022-07-10T07:45:09;18.00;81.30
70145;DHT22;57510;51.068;3.872;2022-07-10T07:47:49;18.10;80.80
70145;DHT22;57510;51.068;3.872;2022-07-10T07:50:17;18.10;81.50
70145;DHT22;57510;51.068;3.872;2022-07-10T07:52:47;18.10;80.40
70145;DHT22;57510;51.068;3.872;2022-07-10T07:55:14;18.30;80.50
70145;DHT22;57510;51.068;3.872;2022-07-10T07:57:42;18.40;80.90
70145;DHT22;57510;51.068;3.872;2022-07-10T08:00:09;18.40;81.60
70145;DHT22;57510;51.068;3.872;2022-07-10T08:02:36;18.50;80.80
70145;DHT22;57510;51.068;3.872;2022-07-10T08:05:03;18.70;80.30
70145;DHT22;57510;51.068;3.872;2022-07-10T08:07:59;18.80;80.90
70145;DHT22;57510;51.068;3.872;2022-07-10T08:10:30;18.90;79.30
70145;DHT22;57510;51.068;3.872;2022-07-10T08:12:57;19.20;78.90
70145;DHT22;57510;51.068;3.872;2022-07-10T08:15:29;19.10;78.40
70145;DHT22;57510;51.068;3.872;2022-07-10T08:18:03;19.20;79.40
70145;DHT22;57510;51.068;3.872;2022-07-10T08:20:46;19.40;78.50
70145;DHT22;57510;51.068;3.872;2022-07-10T08:23:12;19.80;77.90
70145;DHT22;57510;51.068;3.872;2022-07-10T08:25:38;20.10;75.70
70145;DHT22;57510;51.068;3.872;2022-07-10T08:28:04;20.40;75.60
70145;DHT22;57510;51.068;3.872;2022-07-10T08:30:34;20.90;74.70
70145;DHT22;57510;51.068;3.872;2022-07-10T08:33:02;21.40;73.10
70145;DHT22;57510;51.068;3.872;2022-07-10T08:35:28;21.50;72.60
70145;DHT22;57510;51.068;3.872;2022-07-10T08:37:55;22.00;72.10
70145;DHT22;57510;51.068;3.872;2022-07-10T08:40:22;22.10;70.60
70145;DHT22;57510;51.068;3.872;2022-07-10T08:42:48;22.20;71.40
70145;DHT22;57510;51.068;3.872;2022-07-10T08:45:14;22.50;70.10
70145;DHT22;57510;51.068;3.872;2022-07-10T08:47:41;22.40;70.10
70145;DHT22;57510;51.068;3.872;2022-07-10T08:50:23;22.10;70.20
70145;DHT22;57510;51.068;3.872;2022-07-10T08:53:01;22.10;70.30
70145;DHT22;57510;51.068;3.872;2022-07-10T08:55:30;22.30;68.90
70145;DHT22;57510;51.068;3.872;2022-07-10T08:57:56;22.80;68.30
70145;DHT22;57510;51.068;3.872;2022-07-10T09:00:24;22.60;67.50
70145;DHT22;57510;51.068;3.872;2022-07-10T09:02:56;22.50;67.80
70145;DHT22;57510;51.068;3.872;2022-07-10T09:05:23;22.30;67.50
70145;DHT22;57510;51.068;3.872;2022-07-10T09:07:49;22.50;67.40
70145;DHT22;57510;51.068;3.872;2022-07-10T09:10:16;22.70;67.20
70145;DHT22;57510;51.068;3.872;2022-07-10T09:15:21;23.00;66.30
70145;DHT22;57510;51.068;3.872;2022-07-10T09:17:52;23.00;66.70
70145;DHT22;57510;51.068;3.872;2022-07-10T09:20:30;22.60;65.70
70145;DHT22;57510;51.068;3.872;2022-07-10T09:23:15;23.00;66.60
70145;DHT22;57510;51.068;3.872;2022-07-10T09:25:42;23.00;66.60
70145;DHT22;57510;51.068;3.872;2022-07-10T09:28:08;23.10;66.20
70145;DHT22;57510;51.068;3.872;2022-07-10T09:30:39;23.00;65.80
70145;DHT22;57510;51.068;3.872;2022-07-10T09:33:25;23.20;65.20
70145;DHT22;57510;51.068;3.872;2022-07-10T09:36:04;23.80;64.50
70145;DHT22;57510;51.068;3.872;2022-07-10T09:41:20;23.50;65.10
70145;DHT22;57510;51.068;3.872;2022-07-10T09:46:24;23.30;64.50
70145;DHT22;57510;51.068;3.872;2022-07-10T09:49:14;23.50;64.60
70145;DHT22;57510;51.068;3.872;2022-07-10T09:51:45;23.80;64.60
70145;DHT22;57510;51.068;3.872;2022-07-10T09:54:11;23.80;64.40
70145;DHT22;57510;51.068;3.872;2022-07-10T09:56:46;24.40;63.80
70145;DHT22;57510;51.068;3.872;2022-07-10T09:59:17;24.50;62.50
70145;DHT22;57510;51.068;3.872;2022-07-10T10:04:19;24.40;62.60
70145;DHT22;57510;51.068;3.872;2022-07-10T10:06:50;24.90;61.80
70145;DHT22;57510;51.068;3.872;2022-07-10T10:09:38;25.50;60.00
70145;DHT22;57510;51.068;3.872;2022-07-10T10:14:41;24.60;61.10
70145;DHT22;57510;51.068;3.872;2022-07-10T10:17:07;23.90;61.30
70145;DHT22;57510;51.068;3.872;2022-07-10T10:19:36;23.60;62.80
70145;DHT22;57510;51.068;3.872;2022-07-10T10:22:22;23.70;65.20
70145;DHT22;57510;51.068;3.872;2022-07-10T10:24:52;24.00;62.90
70145;DHT22;57510;51.068;3.872;2022-07-10T10:27:19;24.40;62.10
70145;DHT22;57510;51.068;3.872;2022-07-10T10:29:50;24.30;61.20
70145;DHT22;57510;51.068;3.872;2022-07-10T10:32:19;24.70;61.30
70145;DHT22;57510;51.068;3.872;2022-07-10T10:34:49;24.60;61.30
70145;DHT22;57510;51.068;3.872;2022-07-10T10:39:59;24.60;61.70
70145;DHT22;57510;51.068;3.872;2022-07-10T10:42:42;24.70;60.90
70145;DHT22;57510;51.068;3.872;2022-07-10T10:45:24;25.00;61.40
70145;DHT22;57510;51.068;3.872;2022-07-10T10:48:07;25.10;60.10
70145;DHT22;57510;51.068;3.872;2022-07-10T10:50:49;25.20;58.90
70145;DHT22;57510;51.068;3.872;2022-07-10T10:53:17;25.40;59.40
70145;DHT22;57510;51.068;3.872;2022-07-10T10:56:27;25.80;58.30
70145;DHT22;57510;51.068;3.872;2022-07-10T10:58:54;25.80;57.10
70145;DHT22;57510;51.068;3.872;2022-07-10T11:09:33;25.50;57.60
70145;DHT22;57510;51.068;3.872;2022-07-10T11:14:31;25.80;57.20
70145;DHT22;57510;51.068;3.872;2022-07-10T11:16:58;26.20;56.10
70145;DHT22;57510;51.068;3.872;2022-07-10T11:19:26;26.00;57.80
70145;DHT22;57510;51.068;3.872;2022-07-10T11:28:07;26.00;58.10
70145;DHT22;57510;51.068;3.872;2022-07-10T11:33:10;26.40;55.40
70145;DHT22;57510;51.068;3.872;2022-07-10T11:35:38;27.00;55.20
70145;DHT22;57510;51.068;3.872;2022-07-10T11:38:04;26.50;54.10
70145;DHT22;57510;51.068;3.872;2022-07-10T11:40:30;26.20;54.20
70145;DHT22;57510;51.068;3.872;2022-07-10T11:42:58;26.40;54.40
70145;DHT22;57510;51.068;3.872;2022-07-10T11:45:31;26.90;54.70
70145;DHT22;57510;51.068;3.872;2022-07-10T11:47:59;27.10;53.00
70145;DHT22;57510;51.068;3.872;2022-07-10T11:50:26;26.80;53.80
70145;DHT22;57510;51.068;3.872;2022-07-10T11:52:53;26.20;54.00
70145;DHT22;57510;51.068;3.872;2022-07-10T11:55:23;26.40;55.10
70145;DHT22;57510;51.068;3.872;2022-07-10T11:57:49;26.70;55.70
70145;DHT22;57510;51.068;3.872;2022-07-10T12:00:26;26.90;55.00
70145;DHT22;57510;51.068;3.872;2022-07-10T12:02:55;26.70;55.00
70145;DHT22;57510;51.068;3.872;2022-07-10T12:05:36;26.40;55.70
70145;DHT22;57510;51.068;3.872;2022-07-10T12:08:03;26.50;54.00
70145;DHT22;57510;51.068;3.872;2022-07-10T12:10:32;26.70;54.40
70145;DHT22;57510;51.068;3.872;2022-07-10T12:13:09;27.00;54.10
70145;DHT22;57510;51.068;3.872;2022-07-10T12:15:39;26.50;53.40
70145;DHT22;57510;51.068;3.872;2022-07-10T12:18:08;26.50;55.20
70145;DHT22;57510;51.068;3.872;2022-07-10T12:20:35;26.20;55.50
70145;DHT22;57510;51.068;3.872;2022-07-10T12:23:03;26.50;54.00
70145;DHT22;57510;51.068;3.872;2022-07-10T12:25:30;26.90;53.90
70145;DHT22;57510;51.068;3.872;2022-07-10T12:27:57;26.70;54.20
70145;DHT22;57510;51.068;3.872;2022-07-10T12:30:37;26.50;53.90
70145;DHT22;57510;51.068;3.872;2022-07-10T12:33:11;26.60;55.50
70145;DHT22;57510;51.068;3.872;2022-07-10T12:40:50;27.40;53.20
70145;DHT22;57510;51.068;3.872;2022-07-10T12:43:26;27.70;55.00
70145;DHT22;57510;51.068;3.872;2022-07-10T12:46:12;27.60;53.10
70145;DHT22;57510;51.068;3.872;2022-07-10T12:48:41;27.50;52.70
70145;DHT22;57510;51.068;3.872;2022-07-10T12:54:07;26.90;54.90
70145;DHT22;57510;51.068;3.872;2022-07-10T12:56:36;26.50;54.00
70145;DHT22;57510;51.068;3.872;2022-07-10T12:59:14;26.40;54.50
70145;DHT22;57510;51.068;3.872;2022-07-10T13:01:43;26.10;55.10
70145;DHT22;57510;51.068;3.872;2022-07-10T13:04:10;25.80;55.40
70145;DHT22;57510;51.068;3.872;2022-07-10T13:06:38;25.40;56.20
70145;DHT22;57510;51.068;3.872;2022-07-10T13:09:22;25.40;56.80
70145;DHT22;57510;51.068;3.872;2022-07-10T13:11:53;25.40;56.60
70145;DHT22;57510;51.068;3.872;2022-07-10T13:14:19;25.30;56.60
70145;DHT22;57510;51.068;3.872;2022-07-10T13:16:46;25.50;57.50
70145;DHT22;57510;51.068;3.872;2022-07-10T13:19:13;25.60;55.60
70145;DHT22;57510;51.068;3.872;2022-07-10T13:21:39;25.80;57.20
70145;DHT22;57510;51.068;3.872;2022-07-10T13:24:06;25.70;57.60
70145;DHT22;57510;51.068;3.872;2022-07-10T13:26:32;25.80;56.30
70145;DHT22;57510;51.068;3.872;2022-07-10T13:28:58;25.50;58.00
70145;DHT22;57510;51.068;3.872;2022-07-10T13:31:25;25.60;57.90
70145;DHT22;57510;51.068;3.872;2022-07-10T13:33:51;25.20;58.60
70145;DHT22;57510;51.068;3.872;2022-07-10T13:36:18;25.20;58.80
70145;DHT22;57510;51.068;3.872;2022-07-10T13:38:44;25.10;57.20
70145;DHT22;57510;51.068;3.872;2022-07-10T13:41:12;25.20;58.10
70145;DHT22;57510;51.068;3.872;2022-07-10T13:43:38;25.00;56.90
70145;DHT22;57510;51.068;3.872;2022-07-10T13:46:06;25.00;57.70
70145;DHT22;57510;51.068;3.872;2022-07-10T13:48:32;25.00;59.70
70145;DHT22;57510;51.068;3.872;2022-07-10T13:50:59;24.80;58.70
70145;DHT22;57510;51.068;3.872;2022-07-10T13:53:25;24.60;59.10
70145;DHT22;57510;51.068;3.872;2022-07-10T13:55:52;24.50;59.70
70145;DHT22;57510;51.068;3.872;2022-07-10T13:58:18;24.60;58.80
70145;DHT22;57510;51.068;3.872;2022-07-10T14:00:45;24.50;60.80
70145;DHT22;57510;51.068;3.872;2022-07-10T14:03:11;24.70;58.20
70145;DHT22;57510;51.068;3.872;2022-07-10T14:05:46;24.80;60.90
70145;DHT22;57510;51.068;3.872;2022-07-10T14:08:12;24.80;58.60
70145;DHT22;57510;51.068;3.872;2022-07-10T14:10:38;25.00;59.80
70145;DHT22;57510;51.068;3.872;2022-07-10T14:13:08;25.00;59.10
70145;DHT22;57510;51.068;3.872;2022-07-10T14:15:36;25.20;57.70
70145;DHT22;57510;51.068;3.872;2022-07-10T14:18:02;25.10;59.10
70145;DHT22;57510;51.068;3.872;2022-07-10T14:20:30;25.10;58.40
70145;DHT22;57510;51.068;3.872;2022-07-10T14:23:16;25.10;58.40
70145;DHT22;57510;51.068;3.872;2022-07-10T14:25:42;25.20;58.60
70145;DHT22;57510;51.068;3.872;2022-07-10T14:28:09;26.00;56.50
70145;DHT22;57510;51.068;3.872;2022-07-10T14:30:34;27.40;54.00
70145;DHT22;57510;51.068;3.872;2022-07-10T14:33:00;28.50;51.30
70145;DHT22;57510;51.068;3.872;2022-07-10T14:35:25;30.20;49.10
70145;DHT22;57510;51.068;3.872;2022-07-10T14:37:51;30.70;47.90
70145;DHT22;57510;51.068;3.872;2022-07-10T14:40:17;30.40;47.10
70145;DHT22;57510;51.068;3.872;2022-07-10T14:42:43;30.30;46.80
70145;DHT22;57510;51.068;3.872;2022-07-10T14:45:09;31.30;46.10
70145;DHT22;57510;51.068;3.872;2022-07-10T14:47:35;32.40;44.90
70145;DHT22;57510;51.068;3.872;2022-07-10T14:50:01;33.90;41.90
70145;DHT22;57510;51.068;3.872;2022-07-10T14:52:27;33.30;42.80
70145;DHT22;57510;51.068;3.872;2022-07-10T14:54:55;32.90;42.10
70145;DHT22;57510;51.068;3.872;2022-07-10T14:57:21;32.20;42.40
70145;DHT22;57510;51.068;3.872;2022-07-10T14:59:47;31.50;42.70
70145;DHT22;57510;51.068;3.872;2022-07-10T15:02:13;31.10;44.20
70145;DHT22;57510;51.068;3.872;2022-07-10T15:04:39;32.40;42.60
70145;DHT22;57510;51.068;3.872;2022-07-10T15:07:05;34.50;40.60
70145;DHT22;57510;51.068;3.872;2022-07-10T15:09:31;34.70;39.40
70145;DHT22;57510;51.068;3.872;2022-07-10T15:11:58;35.40;38.50
70145;DHT22;57510;51.068;3.872;2022-07-10T15:14:24;35.10;38.60
70145;DHT22;57510;51.068;3.872;2022-07-10T15:16:51;35.70;37.60
70145;DHT22;57510;51.068;3.872;2022-07-10T15:19:17;36.70;36.30
70145;DHT22;57510;51.068;3.872;2022-07-10T15:21:42;36.90;35.40
70145;DHT22;57510;51.068;3.872;2022-07-10T15:24:08;38.10;34.30
70145;DHT22;57510;51.068;3.872;2022-07-10T15:26:34;38.70;34.10
70145;DHT22;57510;51.068;3.872;2022-07-10T15:29:02;39.70;34.60
70145;DHT22;57510;51.068;3.872;2022-07-10T15:31:31;39.20;33.20
70145;DHT22;57510;51.068;3.872;2022-07-10T15:33:56;39.50;32.70
70145;DHT22;57510;51.068;3.872;2022-07-10T15:36:22;39.00;32.50
70145;DHT22;57510;51.068;3.872;2022-07-10T15:38:48;37.70;33.90
70145;DHT22;57510;51.068;3.872;2022-07-10T15:41:13;37.30;34.50
70145;DHT22;57510;51.068;3.872;2022-07-10T15:43:39;37.90;33.50
70145;DHT22;57510;51.068;3.872;2022-07-10T15:46:05;37.30;33.60
70145;DHT22;57510;51.068;3.872;2022-07-10T15:48:33;38.10;33.10
70145;DHT22;57510;51.068;3.872;2022-07-10T15:51:02;36.90;34.30
70145;DHT22;57510;51.068;3.872;2022-07-10T15:53:28;37.10;34.50
70145;DHT22;57510;51.068;3.872;2022-07-10T15:55:54;37.70;33.40
70145;DHT22;57510;51.068;3.872;2022-07-10T15:58:23;37.70;33.30
70145;DHT22;57510;51.068;3.872;2022-07-10T16:00:50;37.00;34.00
70145;DHT22;57510;51.068;3.872;2022-07-10T16:03:17;35.50;35.00
70145;DHT22;57510;51.068;3.872;2022-07-10T16:05:42;35.80;34.40
70145;DHT22;57510;51.068;3.872;2022-07-10T16:08:08;37.00;34.10
70145;DHT22;57510;51.068;3.872;2022-07-10T16:10:36;37.40;33.70
70145;DHT22;57510;51.068;3.872;2022-07-10T16:13:02;36.40;33.90
70145;DHT22;57510;51.068;3.872;2022-07-10T16:15:28;36.40;34.00
70145;DHT22;57510;51.068;3.872;2022-07-10T16:17:56;37.30;33.60
70145;DHT22;57510;51.068;3.872;2022-07-10T16:20:22;38.10;33.30